Oroville, Washington
Current Conditions -  °F | °C
As of 12:53 AM on Friday 24 Oct 2014 (Local Time) from KOMK Reporting Station
Clear Clear  
Wind Chill: 40°   Ceiling: Unl
Heat Index: 40°   Visibility: 10mi
Dew Point: 33°   Wind: 3mph
Humidity: 77%   Direction: NA
Pressure: 29.97"   Gusts: NA
Location:  48.94°N, 119.44°W
Report Text: KOMK 240753Z AUTO VRB03KT 10SM CLR 04/01 A2997 RMK AO2 SLP152 T00440006 401560044
Loading
Personal Weather Stations






























Interactive Weather Map
Tropical Storm Tracking
New forecast layout! Learn more

10-Day Weather Forecast

Advertisements
Track Severe Weather on mobile